sensor_id;sensor_type;location;lat;lon;timestamp;P1;durP1;ratioP1;P2;durP2;ratioP2
24421;SDS011;12600;53.326;-6.298;2023-04-24T00:01:52;28.50;;;17.90;;
24421;SDS011;12600;53.326;-6.298;2023-04-24T00:04:42;31.70;;;18.17;;
24421;SDS011;12600;53.326;-6.298;2023-04-24T00:07:33;27.15;;;18.55;;
24421;SDS011;12600;53.326;-6.298;2023-04-24T00:10:22;32.15;;;19.58;;
24421;SDS011;12600;53.326;-6.298;2023-04-24T00:13:12;27.27;;;18.05;;
24421;SDS011;12600;53.326;-6.298;2023-04-24T00:16:01;32.65;;;18.58;;
24421;SDS011;12600;53.326;-6.298;2023-04-24T00:18:52;29.67;;;17.48;;
24421;SDS011;12600;53.326;-6.298;2023-04-24T00:21:41;29.83;;;17.13;;
24421;SDS011;12600;53.326;-6.298;2023-04-24T00:24:32;25.92;;;16.25;;
24421;SDS011;12600;53.326;-6.298;2023-04-24T00:27:22;26.42;;;15.80;;
24421;SDS011;12600;53.326;-6.298;2023-04-24T00:30:11;29.30;;;17.08;;
24421;SDS011;12600;53.326;-6.298;2023-04-24T00:33:01;25.10;;;16.85;;
24421;SDS011;12600;53.326;-6.298;2023-04-24T00:35:50;28.17;;;16.77;;
24421;SDS011;12600;53.326;-6.298;2023-04-24T00:38:40;27.75;;;16.65;;
24421;SDS011;12600;53.326;-6.298;2023-04-24T00:41:30;24.13;;;16.10;;
24421;SDS011;12600;53.326;-6.298;2023-04-24T00:44:20;24.95;;;15.90;;
24421;SDS011;12600;53.326;-6.298;2023-04-24T00:47:09;25.52;;;16.05;;
24421;SDS011;12600;53.326;-6.298;2023-04-24T00:50:00;27.35;;;16.90;;
24421;SDS011;12600;53.326;-6.298;2023-04-24T00:52:54;29.52;;;16.88;;
24421;SDS011;12600;53.326;-6.298;2023-04-24T00:55:43;25.30;;;15.93;;
24421;SDS011;12600;53.326;-6.298;2023-04-24T00:58:34;26.27;;;15.52;;
24421;SDS011;12600;53.326;-6.298;2023-04-24T01:01:23;26.35;;;13.93;;
24421;SDS011;12600;53.326;-6.298;2023-04-24T01:04:13;22.35;;;13.50;;
24421;SDS011;12600;53.326;-6.298;2023-04-24T01:07:05;25.38;;;12.50;;
24421;SDS011;12600;53.326;-6.298;2023-04-24T01:09:57;25.70;;;11.40;;
24421;SDS011;12600;53.326;-6.298;2023-04-24T01:12:47;20.80;;;11.82;;
24421;SDS011;12600;53.326;-6.298;2023-04-24T01:15:37;19.35;;;11.18;;
24421;SDS011;12600;53.326;-6.298;2023-04-24T01:18:27;24.95;;;11.23;;
24421;SDS011;12600;53.326;-6.298;2023-04-24T01:21:17;21.70;;;11.00;;
24421;SDS011;12600;53.326;-6.298;2023-04-24T01:24:11;21.35;;;10.15;;
24421;SDS011;12600;53.326;-6.298;2023-04-24T01:27:01;21.30;;;9.73;;
24421;SDS011;12600;53.326;-6.298;2023-04-24T01:29:50;21.48;;;9.30;;
24421;SDS011;12600;53.326;-6.298;2023-04-24T01:32:40;18.75;;;9.60;;
24421;SDS011;12600;53.326;-6.298;2023-04-24T01:35:32;21.60;;;10.45;;
24421;SDS011;12600;53.326;-6.298;2023-04-24T01:38:21;19.38;;;9.57;;
24421;SDS011;12600;53.326;-6.298;2023-04-24T01:41:12;21.38;;;10.38;;
24421;SDS011;12600;53.326;-6.298;2023-04-24T01:44:01;17.52;;;9.20;;
24421;SDS011;12600;53.326;-6.298;2023-04-24T01:46:51;19.48;;;9.20;;
24421;SDS011;12600;53.326;-6.298;2023-04-24T01:49:41;20.02;;;9.90;;
24421;SDS011;12600;53.326;-6.298;2023-04-24T01:52:32;20.55;;;9.63;;
24421;SDS011;12600;53.326;-6.298;2023-04-24T01:55:23;21.13;;;10.40;;
24421;SDS011;12600;53.326;-6.298;2023-04-24T01:58:14;21.80;;;9.98;;
24421;SDS011;12600;53.326;-6.298;2023-04-24T02:01:03;18.60;;;10.32;;
24421;SDS011;12600;53.326;-6.298;2023-04-24T02:03:54;19.35;;;9.73;;
24421;SDS011;12600;53.326;-6.298;2023-04-24T02:06:43;20.73;;;9.57;;
24421;SDS011;12600;53.326;-6.298;2023-04-24T02:09:33;21.95;;;10.32;;
24421;SDS011;12600;53.326;-6.298;2023-04-24T02:12:22;17.70;;;9.50;;
24421;SDS011;12600;53.326;-6.298;2023-04-24T02:15:13;19.58;;;9.55;;
24421;SDS011;12600;53.326;-6.298;2023-04-24T02:18:02;21.02;;;9.73;;
24421;SDS011;12600;53.326;-6.298;2023-04-24T02:20:52;21.40;;;10.00;;
24421;SDS011;12600;53.326;-6.298;2023-04-24T02:23:41;21.02;;;10.68;;
24421;SDS011;12600;53.326;-6.298;2023-04-24T02:26:32;23.70;;;11.73;;
24421;SDS011;12600;53.326;-6.298;2023-04-24T02:29:21;22.88;;;11.45;;
24421;SDS011;12600;53.326;-6.298;2023-04-24T02:32:12;23.65;;;12.57;;
24421;SDS011;12600;53.326;-6.298;2023-04-24T02:35:03;22.63;;;12.13;;
24421;SDS011;12600;53.326;-6.298;2023-04-24T02:37:53;23.42;;;12.60;;
24421;SDS011;12600;53.326;-6.298;2023-04-24T02:40:42;22.35;;;12.00;;
24421;SDS011;12600;53.326;-6.298;2023-04-24T02:43:32;23.60;;;11.82;;
24421;SDS011;12600;53.326;-6.298;2023-04-24T02:46:21;23.67;;;12.38;;
24421;SDS011;12600;53.326;-6.298;2023-04-24T02:49:12;23.30;;;12.27;;
24421;SDS011;12600;53.326;-6.298;2023-04-24T02:52:01;21.45;;;10.65;;
24421;SDS011;12600;53.326;-6.298;2023-04-24T02:54:52;19.95;;;11.60;;
24421;SDS011;12600;53.326;-6.298;2023-04-24T02:57:42;22.10;;;10.75;;
24421;SDS011;12600;53.326;-6.298;2023-04-24T03:00:31;22.15;;;10.77;;
24421;SDS011;12600;53.326;-6.298;2023-04-24T03:03:21;21.27;;;9.77;;
24421;SDS011;12600;53.326;-6.298;2023-04-24T03:06:12;23.83;;;10.05;;
24421;SDS011;12600;53.326;-6.298;2023-04-24T03:09:02;19.60;;;9.45;;
24421;SDS011;12600;53.326;-6.298;2023-04-24T03:11:52;21.15;;;9.18;;
24421;SDS011;12600;53.326;-6.298;2023-04-24T03:14:44;18.50;;;9.13;;
24421;SDS011;12600;53.326;-6.298;2023-04-24T03:17:33;19.05;;;8.95;;
24421;SDS011;12600;53.326;-6.298;2023-04-24T03:20:24;18.73;;;9.50;;
24421;SDS011;12600;53.326;-6.298;2023-04-24T03:23:17;21.88;;;9.43;;
24421;SDS011;12600;53.326;-6.298;2023-04-24T03:26:07;19.90;;;9.05;;
24421;SDS011;12600;53.326;-6.298;2023-04-24T03:29:02;19.30;;;9.07;;
24421;SDS011;12600;53.326;-6.298;2023-04-24T03:31:51;20.65;;;9.48;;
24421;SDS011;12600;53.326;-6.298;2023-04-24T03:34:41;16.98;;;9.40;;
24421;SDS011;12600;53.326;-6.298;2023-04-24T03:37:33;20.90;;;10.27;;
24421;SDS011;12600;53.326;-6.298;2023-04-24T03:40:56;18.85;;;10.20;;
24421;SDS011;12600;53.326;-6.298;2023-04-24T03:44:12;21.63;;;10.40;;
24421;SDS011;12600;53.326;-6.298;2023-04-24T03:47:02;20.85;;;9.73;;
24421;SDS011;12600;53.326;-6.298;2023-04-24T03:49:52;21.25;;;10.52;;
24421;SDS011;12600;53.326;-6.298;2023-04-24T03:52:43;20.33;;;9.60;;
24421;SDS011;12600;53.326;-6.298;2023-04-24T03:55:41;17.63;;;8.68;;
24421;SDS011;12600;53.326;-6.298;2023-04-24T03:58:32;15.65;;;9.32;;
24421;SDS011;12600;53.326;-6.298;2023-04-24T04:01:22;20.50;;;10.70;;
24421;SDS011;12600;53.326;-6.298;2023-04-24T04:04:19;19.08;;;10.55;;
24421;SDS011;12600;53.326;-6.298;2023-04-24T04:07:10;22.27;;;10.05;;
24421;SDS011;12600;53.326;-6.298;2023-04-24T04:10:00;19.17;;;9.52;;
24421;SDS011;12600;53.326;-6.298;2023-04-24T04:12:49;13.90;;;7.72;;
24421;SDS011;12600;53.326;-6.298;2023-04-24T04:15:40;13.45;;;6.75;;
24421;SDS011;12600;53.326;-6.298;2023-04-24T04:18:29;12.15;;;5.72;;
24421;SDS011;12600;53.326;-6.298;2023-04-24T04:21:20;8.88;;;4.95;;
24421;SDS011;12600;53.326;-6.298;2023-04-24T04:24:15;8.82;;;4.65;;
24421;SDS011;12600;53.326;-6.298;2023-04-24T04:27:05;8.90;;;4.70;;
24421;SDS011;12600;53.326;-6.298;2023-04-24T04:30:05;9.57;;;4.82;;
24421;SDS011;12600;53.326;-6.298;2023-04-24T04:33:08;8.48;;;4.80;;
24421;SDS011;12600;53.326;-6.298;2023-04-24T04:35:58;8.45;;;4.53;;
24421;SDS011;12600;53.326;-6.298;2023-04-24T04:38:50;10.52;;;5.00;;
24421;SDS011;12600;53.326;-6.298;2023-04-24T04:42:20;14.25;;;5.32;;
24421;SDS011;12600;53.326;-6.298;2023-04-24T04:45:11;12.63;;;4.97;;
24421;SDS011;12600;53.326;-6.298;2023-04-24T04:48:20;10.30;;;5.38;;
24421;SDS011;12600;53.326;-6.298;2023-04-24T04:51:11;16.17;;;8.68;;
24421;SDS011;12600;53.326;-6.298;2023-04-24T04:54:00;20.05;;;8.00;;
24421;SDS011;12600;53.326;-6.298;2023-04-24T04:56:50;17.17;;;3.42;;
24421;SDS011;12600;53.326;-6.298;2023-04-24T04:59:39;9.57;;;2.70;;
24421;SDS011;12600;53.326;-6.298;2023-04-24T05:02:35;13.48;;;3.13;;
24421;SDS011;12600;53.326;-6.298;2023-04-24T05:05:26;6.78;;;2.00;;
24421;SDS011;12600;53.326;-6.298;2023-04-24T05:08:16;6.43;;;2.13;;
24421;SDS011;12600;53.326;-6.298;2023-04-24T05:11:13;11.23;;;3.38;;
24421;SDS011;12600;53.326;-6.298;2023-04-24T05:14:03;12.57;;;3.90;;
24421;SDS011;12600;53.326;-6.298;2023-04-24T05:16:56;9.02;;;3.30;;
24421;SDS011;12600;53.326;-6.298;2023-04-24T05:19:47;14.35;;;3.85;;
24421;SDS011;12600;53.326;-6.298;2023-04-24T05:22:38;14.38;;;3.38;;
24421;SDS011;12600;53.326;-6.298;2023-04-24T05:25:27;16.77;;;4.00;;
24421;SDS011;12600;53.326;-6.298;2023-04-24T05:28:25;12.27;;;2.90;;
24421;SDS011;12600;53.326;-6.298;2023-04-24T05:31:24;15.70;;;2.88;;
24421;SDS011;12600;53.326;-6.298;2023-04-24T05:34:14;13.40;;;3.25;;
24421;SDS011;12600;53.326;-6.298;2023-04-24T05:37:05;13.75;;;3.22;;
24421;SDS011;12600;53.326;-6.298;2023-04-24T05:39:58;12.57;;;2.97;;
24421;SDS011;12600;53.326;-6.298;2023-04-24T05:42:47;16.08;;;3.05;;
24421;SDS011;12600;53.326;-6.298;2023-04-24T05:45:37;13.52;;;3.17;;
24421;SDS011;12600;53.326;-6.298;2023-04-24T05:48:26;15.75;;;3.67;;
24421;SDS011;12600;53.326;-6.298;2023-04-24T05:51:15;18.60;;;3.25;;
24421;SDS011;12600;53.326;-6.298;2023-04-24T05:54:05;15.80;;;3.10;;
24421;SDS011;12600;53.326;-6.298;2023-04-24T05:56:56;15.65;;;3.33;;
24421;SDS011;12600;53.326;-6.298;2023-04-24T05:59:56;14.00;;;3.60;;
24421;SDS011;12600;53.326;-6.298;2023-04-24T06:02:46;11.23;;;3.30;;
24421;SDS011;12600;53.326;-6.298;2023-04-24T06:05:36;8.45;;;2.67;;
24421;SDS011;12600;53.326;-6.298;2023-04-24T06:08:26;7.75;;;2.40;;
24421;SDS011;12600;53.326;-6.298;2023-04-24T06:11:16;13.10;;;2.92;;
24421;SDS011;12600;53.326;-6.298;2023-04-24T06:14:06;8.77;;;2.78;;
24421;SDS011;12600;53.326;-6.298;2023-04-24T06:16:56;15.20;;;3.10;;
24421;SDS011;12600;53.326;-6.298;2023-04-24T06:19:53;10.77;;;2.95;;
24421;SDS011;12600;53.326;-6.298;2023-04-24T06:22:44;14.43;;;3.50;;
24421;SDS011;12600;53.326;-6.298;2023-04-24T06:25:33;11.82;;;3.42;;
24421;SDS011;12600;53.326;-6.298;2023-04-24T06:28:23;15.82;;;3.90;;
24421;SDS011;12600;53.326;-6.298;2023-04-24T06:31:14;12.93;;;5.00;;
24421;SDS011;12600;53.326;-6.298;2023-04-24T06:34:03;9.80;;;3.70;;
24421;SDS011;12600;53.326;-6.298;2023-04-24T06:36:53;10.73;;;4.30;;
24421;SDS011;12600;53.326;-6.298;2023-04-24T06:39:43;16.40;;;4.45;;
24421;SDS011;12600;53.326;-6.298;2023-04-24T06:42:32;10.18;;;4.22;;
24421;SDS011;12600;53.326;-6.298;2023-04-24T06:45:23;9.98;;;4.00;;
24421;SDS011;12600;53.326;-6.298;2023-04-24T06:48:14;11.70;;;3.28;;
24421;SDS011;12600;53.326;-6.298;2023-04-24T06:51:03;7.72;;;3.22;;
24421;SDS011;12600;53.326;-6.298;2023-04-24T06:53:53;6.63;;;2.90;;
24421;SDS011;12600;53.326;-6.298;2023-04-24T06:56:43;5.53;;;2.90;;
24421;SDS011;12600;53.326;-6.298;2023-04-24T06:59:33;9.10;;;3.03;;
24421;SDS011;12600;53.326;-6.298;2023-04-24T07:02:25;6.25;;;2.70;;
24421;SDS011;12600;53.326;-6.298;2023-04-24T07:05:16;6.78;;;2.72;;
24421;SDS011;12600;53.326;-6.298;2023-04-24T07:08:07;9.98;;;3.22;;
24421;SDS011;12600;53.326;-6.298;2023-04-24T07:10:58;17.33;;;7.00;;
24421;SDS011;12600;53.326;-6.298;2023-04-24T07:13:48;5.07;;;2.70;;
24421;SDS011;12600;53.326;-6.298;2023-04-24T07:16:37;6.18;;;2.90;;
24421;SDS011;12600;53.326;-6.298;2023-04-24T07:19:27;9.70;;;2.83;;
24421;SDS011;12600;53.326;-6.298;2023-04-24T07:22:18;7.00;;;2.75;;
24421;SDS011;12600;53.326;-6.298;2023-04-24T07:25:08;7.43;;;3.20;;
24421;SDS011;12600;53.326;-6.298;2023-04-24T07:27:57;7.53;;;2.92;;
24421;SDS011;12600;53.326;-6.298;2023-04-24T07:30:47;10.40;;;3.70;;
24421;SDS011;12600;53.326;-6.298;2023-04-24T07:33:36;9.98;;;3.50;;
24421;SDS011;12600;53.326;-6.298;2023-04-24T07:36:26;7.30;;;3.17;;
24421;SDS011;12600;53.326;-6.298;2023-04-24T07:39:19;14.52;;;3.97;;
24421;SDS011;12600;53.326;-6.298;2023-04-24T07:42:08;12.52;;;4.07;;
24421;SDS011;12600;53.326;-6.298;2023-04-24T07:44:57;10.60;;;3.38;;
24421;SDS011;12600;53.326;-6.298;2023-04-24T07:47:47;16.35;;;4.05;;
24421;SDS011;12600;53.326;-6.298;2023-04-24T07:50:38;13.40;;;3.88;;
24421;SDS011;12600;53.326;-6.298;2023-04-24T07:53:27;11.63;;;3.33;;
24421;SDS011;12600;53.326;-6.298;2023-04-24T07:56:18;14.02;;;3.60;;
24421;SDS011;12600;53.326;-6.298;2023-04-24T07:59:07;12.98;;;3.28;;
24421;SDS011;12600;53.326;-6.298;2023-04-24T08:01:57;10.70;;;2.92;;
24421;SDS011;12600;53.326;-6.298;2023-04-24T08:04:48;9.40;;;2.97;;
24421;SDS011;12600;53.326;-6.298;2023-04-24T08:07:38;11.38;;;3.75;;
24421;SDS011;12600;53.326;-6.298;2023-04-24T08:10:29;11.68;;;3.05;;
24421;SDS011;12600;53.326;-6.298;2023-04-24T08:13:20;8.68;;;3.33;;
24421;SDS011;12600;53.326;-6.298;2023-04-24T08:16:10;12.60;;;4.13;;
24421;SDS011;12600;53.326;-6.298;2023-04-24T08:18:59;15.35;;;3.90;;
24421;SDS011;12600;53.326;-6.298;2023-04-24T08:21:49;13.18;;;3.50;;
24421;SDS011;12600;53.326;-6.298;2023-04-24T08:24:38;12.40;;;3.40;;
24421;SDS011;12600;53.326;-6.298;2023-04-24T08:27:28;8.93;;;3.08;;
24421;SDS011;12600;53.326;-6.298;2023-04-24T08:30:18;10.15;;;2.90;;
24421;SDS011;12600;53.326;-6.298;2023-04-24T08:33:07;9.85;;;3.60;;
24421;SDS011;12600;53.326;-6.298;2023-04-24T08:35:57;10.38;;;2.83;;
24421;SDS011;12600;53.326;-6.298;2023-04-24T08:38:47;12.50;;;3.33;;
24421;SDS011;12600;53.326;-6.298;2023-04-24T08:41:37;8.15;;;2.92;;
24421;SDS011;12600;53.326;-6.298;2023-04-24T08:44:30;11.25;;;2.95;;
24421;SDS011;12600;53.326;-6.298;2023-04-24T08:47:22;7.00;;;2.92;;
24421;SDS011;12600;53.326;-6.298;2023-04-24T08:50:12;11.48;;;3.28;;
24421;SDS011;12600;53.326;-6.298;2023-04-24T08:53:02;10.38;;;2.95;;
24421;SDS011;12600;53.326;-6.298;2023-04-24T08:55:52;9.50;;;2.80;;
24421;SDS011;12600;53.326;-6.298;2023-04-24T08:58:44;8.05;;;3.03;;
24421;SDS011;12600;53.326;-6.298;2023-04-24T09:01:33;9.23;;;3.13;;
24421;SDS011;12600;53.326;-6.298;2023-04-24T09:07:17;9.93;;;2.97;;
24421;SDS011;12600;53.326;-6.298;2023-04-24T09:10:07;9.98;;;2.83;;
24421;SDS011;12600;53.326;-6.298;2023-04-24T09:12:57;8.77;;;3.33;;
24421;SDS011;12600;53.326;-6.298;2023-04-24T09:15:49;11.15;;;3.42;;
24421;SDS011;12600;53.326;-6.298;2023-04-24T09:18:39;8.98;;;2.75;;
24421;SDS011;12600;53.326;-6.298;2023-04-24T09:21:32;8.90;;;2.63;;
24421;SDS011;12600;53.326;-6.298;2023-04-24T09:24:23;21.17;;;3.63;;
24421;SDS011;12600;53.326;-6.298;2023-04-24T09:27:12;11.10;;;3.25;;
24421;SDS011;12600;53.326;-6.298;2023-04-24T09:30:03;6.20;;;2.60;;
24421;SDS011;12600;53.326;-6.298;2023-04-24T09:36:00;5.63;;;2.42;;
24421;SDS011;12600;53.326;-6.298;2023-04-24T09:38:53;8.05;;;2.72;;
24421;SDS011;12600;53.326;-6.298;2023-04-24T09:41:46;7.93;;;2.80;;
24421;SDS011;12600;53.326;-6.298;2023-04-24T09:44:38;5.97;;;2.45;;
24421;SDS011;12600;53.326;-6.298;2023-04-24T09:47:27;11.88;;;3.13;;
24421;SDS011;12600;53.326;-6.298;2023-04-24T09:50:24;7.40;;;2.88;;
24421;SDS011;12600;53.326;-6.298;2023-04-24T09:53:14;8.68;;;2.83;;
24421;SDS011;12600;53.326;-6.298;2023-04-24T09:56:06;11.52;;;3.80;;
24421;SDS011;12600;53.326;-6.298;2023-04-24T09:59:03;9.57;;;3.20;;
24421;SDS011;12600;53.326;-6.298;2023-04-24T10:01:54;13.48;;;4.20;;
24421;SDS011;12600;53.326;-6.298;2023-04-24T10:04:53;11.25;;;3.35;;
24421;SDS011;12600;53.326;-6.298;2023-04-24T10:07:43;10.68;;;3.92;;
24421;SDS011;12600;53.326;-6.298;2023-04-24T10:10:37;11.75;;;3.85;;
24421;SDS011;12600;53.326;-6.298;2023-04-24T10:13:30;15.60;;;6.20;;
24421;SDS011;12600;53.326;-6.298;2023-04-24T10:16:20;9.90;;;2.97;;
24421;SDS011;12600;53.326;-6.298;2023-04-24T10:19:10;9.07;;;3.20;;
24421;SDS011;12600;53.326;-6.298;2023-04-24T10:22:00;10.55;;;3.22;;
24421;SDS011;12600;53.326;-6.298;2023-04-24T10:24:53;8.77;;;3.05;;
24421;SDS011;12600;53.326;-6.298;2023-04-24T10:27:42;9.88;;;3.40;;
24421;SDS011;12600;53.326;-6.298;2023-04-24T10:30:34;9.32;;;2.90;;
24421;SDS011;12600;53.326;-6.298;2023-04-24T10:33:24;13.82;;;4.18;;
24421;SDS011;12600;53.326;-6.298;2023-04-24T10:36:15;11.43;;;2.90;;
24421;SDS011;12600;53.326;-6.298;2023-04-24T10:39:07;6.28;;;2.85;;
24421;SDS011;12600;53.326;-6.298;2023-04-24T10:42:00;9.20;;;2.90;;
24421;SDS011;12600;53.326;-6.298;2023-04-24T10:44:49;11.40;;;3.15;;
24421;SDS011;12600;53.326;-6.298;2023-04-24T10:47:41;7.68;;;2.92;;
24421;SDS011;12600;53.326;-6.298;2023-04-24T10:50:41;8.30;;;3.03;;
24421;SDS011;12600;53.326;-6.298;2023-04-24T10:53:34;10.98;;;2.90;;
24421;SDS011;12600;53.326;-6.298;2023-04-24T10:56:23;9.15;;;2.92;;
24421;SDS011;12600;53.326;-6.298;2023-04-24T10:59:19;8.68;;;2.90;;
24421;SDS011;12600;53.326;-6.298;2023-04-24T11:02:14;8.73;;;2.83;;
24421;SDS011;12600;53.326;-6.298;2023-04-24T11:05:06;18.48;;;3.17;;
24421;SDS011;12600;53.326;-6.298;2023-04-24T11:08:11;9.60;;;3.05;;
24421;SDS011;12600;53.326;-6.298;2023-04-24T11:11:03;10.13;;;3.20;;
24421;SDS011;12600;53.326;-6.298;2023-04-24T11:14:04;7.05;;;2.90;;
24421;SDS011;12600;53.326;-6.298;2023-04-24T11:16:56;9.75;;;2.80;;
24421;SDS011;12600;53.326;-6.298;2023-04-24T11:19:49;10.02;;;2.97;;
24421;SDS011;12600;53.326;-6.298;2023-04-24T11:22:43;6.60;;;2.47;;
24421;SDS011;12600;53.326;-6.298;2023-04-24T11:25:32;12.30;;;3.10;;
24421;SDS011;12600;53.326;-6.298;2023-04-24T11:28:23;9.75;;;2.90;;
24421;SDS011;12600;53.326;-6.298;2023-04-24T11:34:26;14.35;;;2.72;;
24421;SDS011;12600;53.326;-6.298;2023-04-24T11:37:16;12.07;;;2.80;;
24421;SDS011;12600;53.326;-6.298;2023-04-24T11:40:08;9.60;;;3.00;;
24421;SDS011;12600;53.326;-6.298;2023-04-24T11:42:59;9.57;;;2.80;;
24421;SDS011;12600;53.326;-6.298;2023-04-24T11:45:49;9.20;;;3.15;;
24421;SDS011;12600;53.326;-6.298;2023-04-24T11:48:38;16.40;;;3.40;;
24421;SDS011;12600;53.326;-6.298;2023-04-24T11:51:35;19.05;;;6.20;;
24421;SDS011;12600;53.326;-6.298;2023-04-24T11:54:46;12.75;;;4.10;;
24421;SDS011;12600;53.326;-6.298;2023-04-24T11:57:38;10.45;;;3.25;;
24421;SDS011;12600;53.326;-6.298;2023-04-24T12:00:31;10.48;;;3.17;;
24421;SDS011;12600;53.326;-6.298;2023-04-24T12:03:22;10.25;;;2.85;;
24421;SDS011;12600;53.326;-6.298;2023-04-24T12:06:12;9.73;;;3.03;;
24421;SDS011;12600;53.326;-6.298;2023-04-24T12:09:02;13.50;;;3.28;;
24421;SDS011;12600;53.326;-6.298;2023-04-24T12:12:04;9.27;;;3.47;;
24421;SDS011;12600;53.326;-6.298;2023-04-24T12:15:00;13.43;;;3.00;;
24421;SDS011;12600;53.326;-6.298;2023-04-24T12:17:55;11.25;;;2.95;;
24421;SDS011;12600;53.326;-6.298;2023-04-24T12:20:45;15.95;;;3.20;;
24421;SDS011;12600;53.326;-6.298;2023-04-24T12:23:34;9.07;;;2.72;;
24421;SDS011;12600;53.326;-6.298;2023-04-24T12:26:24;6.50;;;2.78;;
24421;SDS011;12600;53.326;-6.298;2023-04-24T12:29:19;7.95;;;2.80;;
24421;SDS011;12600;53.326;-6.298;2023-04-24T12:32:16;10.02;;;2.38;;
24421;SDS011;12600;53.326;-6.298;2023-04-24T12:35:06;10.13;;;2.88;;
24421;SDS011;12600;53.326;-6.298;2023-04-24T12:37:59;13.00;;;3.65;;
24421;SDS011;12600;53.326;-6.298;2023-04-24T12:41:01;12.68;;;3.50;;
24421;SDS011;12600;53.326;-6.298;2023-04-24T12:43:52;8.30;;;2.90;;
24421;SDS011;12600;53.326;-6.298;2023-04-24T12:46:42;10.70;;;2.70;;
24421;SDS011;12600;53.326;-6.298;2023-04-24T12:49:34;13.75;;;4.75;;
24421;SDS011;12600;53.326;-6.298;2023-04-24T12:52:23;8.75;;;2.83;;
24421;SDS011;12600;53.326;-6.298;2023-04-24T12:55:13;11.23;;;3.35;;
24421;SDS011;12600;53.326;-6.298;2023-04-24T12:58:03;15.82;;;3.20;;
24421;SDS011;12600;53.326;-6.298;2023-04-24T13:00:52;10.95;;;3.28;;
24421;SDS011;12600;53.326;-6.298;2023-04-24T13:03:42;14.43;;;6.30;;
24421;SDS011;12600;53.326;-6.298;2023-04-24T13:06:34;8.55;;;2.17;;
24421;SDS011;12600;53.326;-6.298;2023-04-24T13:09:23;7.90;;;2.47;;
24421;SDS011;12600;53.326;-6.298;2023-04-24T13:12:12;8.50;;;2.65;;
24421;SDS011;12600;53.326;-6.298;2023-04-24T13:15:02;8.90;;;2.45;;
24421;SDS011;12600;53.326;-6.298;2023-04-24T13:17:52;7.20;;;2.40;;
24421;SDS011;12600;53.326;-6.298;2023-04-24T13:20:42;11.35;;;3.17;;
24421;SDS011;12600;53.326;-6.298;2023-04-24T13:23:34;10.60;;;2.70;;
24421;SDS011;12600;53.326;-6.298;2023-04-24T13:26:23;11.93;;;3.22;;
24421;SDS011;12600;53.326;-6.298;2023-04-24T13:29:13;9.95;;;2.65;;
24421;SDS011;12600;53.326;-6.298;2023-04-24T13:32:02;8.02;;;2.28;;
24421;SDS011;12600;53.326;-6.298;2023-04-24T13:34:52;9.52;;;3.58;;
24421;SDS011;12600;53.326;-6.298;2023-04-24T13:37:42;11.52;;;3.17;;
24421;SDS011;12600;53.326;-6.298;2023-04-24T13:40:32;8.00;;;3.00;;
24421;SDS011;12600;53.326;-6.298;2023-04-24T13:43:22;10.63;;;3.08;;
24421;SDS011;12600;53.326;-6.298;2023-04-24T13:46:11;9.65;;;2.83;;
24421;SDS011;12600;53.326;-6.298;2023-04-24T13:49:01;7.53;;;2.55;;
24421;SDS011;12600;53.326;-6.298;2023-04-24T13:51:52;8.88;;;2.47;;
24421;SDS011;12600;53.326;-6.298;2023-04-24T13:54:42;10.00;;;2.78;;
24421;SDS011;12600;53.326;-6.298;2023-04-24T13:57:33;11.18;;;3.05;;
24421;SDS011;12600;53.326;-6.298;2023-04-24T14:00:22;10.57;;;3.17;;
24421;SDS011;12600;53.326;-6.298;2023-04-24T14:03:12;12.90;;;3.03;;
24421;SDS011;12600;53.326;-6.298;2023-04-24T14:06:01;9.88;;;3.03;;
24421;SDS011;12600;53.326;-6.298;2023-04-24T14:08:51;10.45;;;3.40;;
24421;SDS011;12600;53.326;-6.298;2023-04-24T14:11:40;9.82;;;2.83;;
24421;SDS011;12600;53.326;-6.298;2023-04-24T14:14:31;11.02;;;2.97;;
24421;SDS011;12600;53.326;-6.298;2023-04-24T14:17:21;10.98;;;2.92;;
24421;SDS011;12600;53.326;-6.298;2023-04-24T14:20:11;9.75;;;3.00;;
24421;SDS011;12600;53.326;-6.298;2023-04-24T14:23:01;13.35;;;3.10;;
24421;SDS011;12600;53.326;-6.298;2023-04-24T14:25:51;8.88;;;2.70;;
24421;SDS011;12600;53.326;-6.298;2023-04-24T14:28:40;12.25;;;3.00;;
24421;SDS011;12600;53.326;-6.298;2023-04-24T14:31:31;13.88;;;3.88;;
24421;SDS011;12600;53.326;-6.298;2023-04-24T14:34:20;10.57;;;3.10;;
24421;SDS011;12600;53.326;-6.298;2023-04-24T14:37:10;14.77;;;4.60;;
24421;SDS011;12600;53.326;-6.298;2023-04-24T14:39:59;10.00;;;4.38;;
24421;SDS011;12600;53.326;-6.298;2023-04-24T14:43:06;9.23;;;2.78;;
24421;SDS011;12600;53.326;-6.298;2023-04-24T14:45:56;9.63;;;2.72;;
24421;SDS011;12600;53.326;-6.298;2023-04-24T14:48:46;10.77;;;2.70;;
24421;SDS011;12600;53.326;-6.298;2023-04-24T14:51:36;7.88;;;2.90;;
24421;SDS011;12600;53.326;-6.298;2023-04-24T14:54:25;11.55;;;2.63;;
24421;SDS011;12600;53.326;-6.298;2023-04-24T14:57:16;11.90;;;3.40;;
24421;SDS011;12600;53.326;-6.298;2023-04-24T15:00:06;6.78;;;3.42;;
24421;SDS011;12600;53.326;-6.298;2023-04-24T15:02:57;10.00;;;2.75;;
24421;SDS011;12600;53.326;-6.298;2023-04-24T15:05:48;6.18;;;2.95;;
24421;SDS011;12600;53.326;-6.298;2023-04-24T15:08:39;8.35;;;3.28;;
24421;SDS011;12600;53.326;-6.298;2023-04-24T15:11:29;6.60;;;2.72;;
24421;SDS011;12600;53.326;-6.298;2023-04-24T15:14:18;9.20;;;3.30;;
24421;SDS011;12600;53.326;-6.298;2023-04-24T15:17:07;9.13;;;2.90;;
24421;SDS011;12600;53.326;-6.298;2023-04-24T15:19:57;8.27;;;2.78;;
24421;SDS011;12600;53.326;-6.298;2023-04-24T15:22:49;7.43;;;3.13;;
24421;SDS011;12600;53.326;-6.298;2023-04-24T15:25:39;8.25;;;2.55;;
24421;SDS011;12600;53.326;-6.298;2023-04-24T15:28:28;9.40;;;2.85;;
24421;SDS011;12600;53.326;-6.298;2023-04-24T15:31:17;16.20;;;3.28;;
24421;SDS011;12600;53.326;-6.298;2023-04-24T15:34:07;10.38;;;3.00;;
24421;SDS011;12600;53.326;-6.298;2023-04-24T15:36:56;11.77;;;2.95;;
24421;SDS011;12600;53.326;-6.298;2023-04-24T15:39:47;11.32;;;3.08;;
24421;SDS011;12600;53.326;-6.298;2023-04-24T15:42:37;8.55;;;2.75;;
24421;SDS011;12600;53.326;-6.298;2023-04-24T15:45:27;7.05;;;2.80;;
24421;SDS011;12600;53.326;-6.298;2023-04-24T15:48:17;12.70;;;3.80;;
24421;SDS011;12600;53.326;-6.298;2023-04-24T15:51:07;10.40;;;2.70;;
24421;SDS011;12600;53.326;-6.298;2023-04-24T15:53:57;10.07;;;3.00;;
24421;SDS011;12600;53.326;-6.298;2023-04-24T15:56:49;9.23;;;3.40;;
24421;SDS011;12600;53.326;-6.298;2023-04-24T15:59:38;9.10;;;3.45;;
24421;SDS011;12600;53.326;-6.298;2023-04-24T16:02:28;14.73;;;4.13;;
24421;SDS011;12600;53.326;-6.298;2023-04-24T16:05:17;9.68;;;2.95;;
24421;SDS011;12600;53.326;-6.298;2023-04-24T16:08:08;8.07;;;3.10;;
24421;SDS011;12600;53.326;-6.298;2023-04-24T16:11:00;17.10;;;4.80;;
24421;SDS011;12600;53.326;-6.298;2023-04-24T16:13:51;11.25;;;3.47;;
24421;SDS011;12600;53.326;-6.298;2023-04-24T16:16:40;9.27;;;3.53;;
24421;SDS011;12600;53.326;-6.298;2023-04-24T16:19:29;12.55;;;3.53;;
24421;SDS011;12600;53.326;-6.298;2023-04-24T16:22:20;9.75;;;3.80;;
24421;SDS011;12600;53.326;-6.298;2023-04-24T16:25:10;11.65;;;4.13;;
24421;SDS011;12600;53.326;-6.298;2023-04-24T16:27:59;13.20;;;5.20;;
24421;SDS011;12600;53.326;-6.298;2023-04-24T16:30:50;11.55;;;3.30;;
24421;SDS011;12600;53.326;-6.298;2023-04-24T16:33:40;8.43;;;3.33;;
24421;SDS011;12600;53.326;-6.298;2023-04-24T16:36:29;8.25;;;3.50;;
24421;SDS011;12600;53.326;-6.298;2023-04-24T16:39:18;18.23;;;10.30;;
24421;SDS011;12600;53.326;-6.298;2023-04-24T16:42:08;13.82;;;4.57;;
24421;SDS011;12600;53.326;-6.298;2023-04-24T16:44:59;27.17;;;11.27;;
24421;SDS011;12600;53.326;-6.298;2023-04-24T16:47:51;13.98;;;5.85;;
24421;SDS011;12600;53.326;-6.298;2023-04-24T16:50:40;11.55;;;4.38;;
24421;SDS011;12600;53.326;-6.298;2023-04-24T16:53:29;12.82;;;5.00;;